Time;durP1;ratioP1;P1;durP2;ratioP2;P2;SDS_P1;SDS_P2;PMS_P1;PMS_P2;Temp;Humidity;BMP_temperature;BMP_pressure;BME280_temperature;BME280_humidity;BME280_pressure;Samples;Min_cycle;Max_cycle;Signal;HPM_P1;HPM_P2
2021/04/30 00:02:12;;;;;;;11.60;10.40;;;8.50;99.90;;;;;;5072971;28;20551;-68
2021/04/30 00:04:38;;;;;;;12.20;10.97;;;8.50;99.90;;;;;;5072954;28;20159;-69
2021/04/30 00:07:03;;;;;;;14.90;10.20;;;8.50;99.90;;;;;;5090273;28;20269;-69
2021/04/30 00:09:29;;;;;;;12.27;10.97;;;8.50;99.90;;;;;;5091172;28;20171;-69
2021/04/30 00:11:54;;;;;;;13.90;11.50;;;8.50;99.90;;;;;;5092972;28;20186;-68
2021/04/30 00:14:21;;;;;;;12.63;11.17;;;8.50;99.90;;;;;;5092714;28;20281;-68
2021/04/30 00:16:48;;;;;;;13.40;12.00;;;8.40;99.90;;;;;;5092810;28;20633;-68
2021/04/30 00:19:14;;;;;;;17.83;13.33;;;8.40;99.90;;;;;;5092878;28;20491;-68
2021/04/30 00:21:39;;;;;;;29.83;14.93;;;8.40;99.90;;;;;;5093413;28;20526;-68
2021/04/30 00:24:06;;;;;;;17.40;15.53;;;8.40;99.90;;;;;;5074950;28;20213;-68
2021/04/30 00:26:32;;;;;;;19.53;14.33;;;8.40;99.90;;;;;;5072899;28;20179;-68
2021/04/30 00:28:59;;;;;;;18.70;12.67;;;8.40;99.90;;;;;;5072651;28;20482;-68
2021/04/30 00:31:24;;;;;;;20.43;13.17;;;8.40;99.90;;;;;;5072642;28;20382;-68
2021/04/30 00:33:50;;;;;;;18.60;16.00;;;8.40;99.90;;;;;;5072758;28;20479;-69
2021/04/30 00:36:15;;;;;;;19.33;15.73;;;8.40;99.90;;;;;;5072750;28;20638;-68
2021/04/30 00:38:41;;;;;;;17.17;14.37;;;8.30;99.90;;;;;;5072548;28;20196;-68
2021/04/30 00:41:07;;;;;;;17.83;14.03;;;8.40;99.90;;;;;;5073154;28;20183;-69
2021/04/30 00:43:32;;;;;;;17.00;13.63;;;8.30;99.90;;;;;;5072581;28;20163;-68
2021/04/30 00:45:58;;;;;;;16.20;12.97;;;8.30;99.90;;;;;;5072692;28;20168;-68
2021/04/30 00:48:23;;;;;;;19.47;13.80;;;8.30;99.90;;;;;;5074308;28;20198;-69
2021/04/30 00:50:50;;;;;;;23.50;14.70;;;8.30;99.90;;;;;;5092879;28;20155;-68
2021/04/30 00:53:15;;;;;;;18.90;14.60;;;8.30;99.90;;;;;;5092667;28;20179;-69
2021/04/30 00:55:41;;;;;;;16.83;14.87;;;8.30;99.90;;;;;;5092519;28;20464;-68
2021/04/30 00:58:07;;;;;;;21.57;16.23;;;8.30;99.90;;;;;;5074508;28;20179;-68
2021/04/30 01:00:35;;;;;;;22.20;16.67;;;8.20;99.90;;;;;;5072405;28;20698;-68
2021/04/30 01:03:01;;;;;;;15.47;13.60;;;8.20;99.90;;;;;;5072693;28;20390;-69
2021/04/30 01:05:27;;;;;;;20.60;14.70;;;8.20;99.90;;;;;;5073049;28;20385;-69
2021/04/30 01:07:53;;;;;;;17.27;13.40;;;8.20;99.90;;;;;;5072504;28;20412;-69
2021/04/30 01:10:20;;;;;;;16.73;13.23;;;8.20;99.90;;;;;;5072252;28;20393;-68
2021/04/30 01:12:47;;;;;;;15.20;12.47;;;8.20;99.90;;;;;;5072243;28;20394;-69
2021/04/30 01:15:15;;;;;;;16.20;13.37;;;8.20;99.90;;;;;;5090612;28;20464;-68
2021/04/30 01:17:40;;;;;;;15.27;13.10;;;8.20;99.90;;;;;;5092581;28;20395;-69
2021/04/30 01:20:08;;;;;;;15.93;13.07;;;8.10;99.90;;;;;;5092813;28;20408;-68
2021/04/30 01:22:36;;;;;;;20.57;13.57;;;8.10;99.90;;;;;;5093961;28;20155;-68
2021/04/30 01:25:04;;;;;;;14.33;12.60;;;8.10;99.90;;;;;;5095991;28;20393;-68
2021/04/30 01:27:29;;;;;;;19.60;14.07;;;8.10;99.90;;;;;;5096012;28;20941;-69
2021/04/30 01:29:55;;;;;;;23.47;14.97;;;8.10;99.90;;;;;;5095729;28;20482;-68
2021/04/30 01:32:21;;;;;;;17.30;13.37;;;8.10;99.90;;;;;;5094497;28;20453;-69
2021/04/30 01:34:46;;;;;;;23.03;15.23;;;8.10;99.90;;;;;;5095934;28;20198;-68
2021/04/30 01:37:12;;;;;;;15.93;14.17;;;8.10;99.90;;;;;;5095827;28;20151;-68
2021/04/30 01:39:38;;;;;;;15.93;14.33;;;8.00;99.90;;;;;;5095790;28;20197;-68
2021/04/30 01:42:07;;;;;;;20.10;14.07;;;8.00;99.90;;;;;;5095924;28;20436;-68
2021/04/30 01:44:33;;;;;;;17.27;14.60;;;8.00;99.90;;;;;;5095645;28;20167;-68
2021/04/30 01:47:00;;;;;;;18.90;13.13;;;8.00;99.90;;;;;;5094053;28;20510;-69
2021/04/30 01:49:26;;;;;;;18.17;14.97;;;7.90;99.90;;;;;;5075724;28;20793;-69
2021/04/30 01:51:52;;;;;;;21.43;14.97;;;8.00;99.90;;;;;;5075247;28;20417;-69
2021/04/30 01:54:17;;;;;;;15.60;13.93;;;7.90;99.90;;;;;;5075130;28;20430;-68
2021/04/30 01:56:43;;;;;;;14.67;13.07;;;7.90;99.90;;;;;;5075158;28;20394;-69
2021/04/30 01:59:09;;;;;;;15.23;13.67;;;7.90;99.90;;;;;;5075624;28;20197;-69
2021/04/30 02:01:34;;;;;;;19.30;13.40;;;7.80;99.90;;;;;;5095435;28;20680;-69
2021/04/30 02:04:00;;;;;;;17.37;15.30;;;7.80;99.90;;;;;;5095050;28;20688;-68
2021/04/30 02:06:26;;;;;;;18.00;14.70;;;7.80;99.90;;;;;;5075049;28;20224;-69
2021/04/30 02:08:54;;;;;;;18.90;15.07;;;7.80;99.90;;;;;;5075117;28;20689;-69
2021/04/30 02:11:19;;;;;;;18.27;14.33;;;7.70;99.90;;;;;;5074879;28;20398;-69
2021/04/30 02:13:45;;;;;;;18.20;15.37;;;7.70;99.90;;;;;;5074850;28;20386;-69
2021/04/30 02:16:10;;;;;;;19.90;15.50;;;7.80;99.90;;;;;;5075070;28;20190;-69
2021/04/30 02:18:36;;;;;;;16.23;14.60;;;7.70;99.90;;;;;;5074887;28;20181;-69
2021/04/30 02:21:02;;;;;;;18.53;15.77;;;7.70;99.90;;;;;;5075210;28;20160;-69
2021/04/30 02:23:27;;;;;;;22.17;16.87;;;7.70;99.90;;;;;;5094899;28;20159;-69
2021/04/30 02:25:53;;;;;;;18.23;15.97;;;7.70;99.90;;;;;;5085827;28;20194;-69
2021/04/30 02:28:19;;;;;;;19.90;14.63;;;7.60;99.90;;;;;;5075144;28;20171;-69
2021/04/30 02:30:44;;;;;;;19.60;15.97;;;7.60;99.90;;;;;;5074652;28;20181;-69
2021/04/30 02:33:11;;;;;;;17.70;16.10;;;7.60;99.90;;;;;;5074952;28;20151;-68
2021/04/30 02:35:42;;;;;;;21.70;16.30;;;7.60;99.90;;;;;;5074392;28;20640;-68
2021/04/30 02:38:10;;;;;;;18.83;16.83;;;7.60;99.90;;;;;;5075734;28;20424;-68
2021/04/30 02:40:37;;;;;;;20.63;17.50;;;7.60;99.90;;;;;;5094635;28;20381;-68
2021/04/30 02:43:07;;;;;;;18.93;17.17;;;7.50;99.90;;;;;;5094586;28;20394;-68
2021/04/30 02:45:33;;;;;;;18.07;16.20;;;7.50;99.90;;;;;;5095117;28;20411;-66
2021/04/30 02:48:00;;;;;;;20.77;18.77;;;7.50;99.90;;;;;;5082674;28;20429;-66
2021/04/30 02:50:30;;;;;;;18.80;16.80;;;7.50;99.90;;;;;;5074232;28;20526;-66
2021/04/30 02:52:55;;;;;;;21.90;17.93;;;7.40;99.90;;;;;;5073056;28;20400;-66
2021/04/30 02:55:23;;;;;;;19.47;17.57;;;7.50;99.90;;;;;;5077415;28;20456;-66
2021/04/30 02:57:50;;;;;;;21.07;17.23;;;7.50;99.90;;;;;;5094223;28;20310;-66
2021/04/30 03:00:17;;;;;;;18.73;16.80;;;7.40;99.90;;;;;;5094173;28;20927;-66
2021/04/30 03:02:42;;;;;;;20.30;18.27;;;7.40;99.90;;;;;;5094753;28;20403;-66
2021/04/30 03:05:08;;;;;;;25.43;18.57;;;7.40;99.90;;;;;;5094336;28;20402;-66
2021/04/30 03:07:34;;;;;;;22.43;19.70;;;7.40;99.90;;;;;;5094287;28;20182;-66
2021/04/30 03:10:00;;;;;;;17.70;15.90;;;7.50;99.90;;;;;;5093885;28;20783;-66
2021/04/30 03:12:25;;;;;;;25.60;17.60;;;7.50;99.90;;;;;;5092824;28;20174;-66
2021/04/30 03:14:51;;;;;;;19.33;17.37;;;7.50;99.90;;;;;;5073652;28;20202;-66
2021/04/30 03:17:16;;;;;;;21.70;19.47;;;7.40;99.90;;;;;;5074211;28;20630;-66
2021/04/30 03:19:42;;;;;;;21.17;18.03;;;7.40;99.90;;;;;;5073511;28;20167;-66
2021/04/30 03:22:07;;;;;;;17.33;15.60;;;7.40;99.90;;;;;;5073533;28;20164;-66
2021/04/30 03:24:33;;;;;;;18.67;16.97;;;7.40;99.90;;;;;;5073583;28;20602;-66
2021/04/30 03:26:59;;;;;;;18.70;16.83;;;7.40;99.90;;;;;;5073702;28;20637;-66
2021/04/30 03:29:24;;;;;;;18.97;16.73;;;7.40;99.90;;;;;;5077007;28;20265;-66
2021/04/30 03:31:50;;;;;;;18.30;16.30;;;7.30;99.90;;;;;;5094338;28;20609;-66
2021/04/30 03:34:16;;;;;;;19.60;17.60;;;7.30;99.90;;;;;;5093559;28;20230;-66
2021/04/30 03:36:41;;;;;;;19.60;17.60;;;7.40;99.90;;;;;;5093597;28;20628;-66
2021/04/30 03:39:08;;;;;;;19.90;17.87;;;7.30;99.90;;;;;;5092629;28;20189;-66
2021/04/30 03:41:34;;;;;;;19.43;16.53;;;7.30;99.90;;;;;;5092426;28;20241;-66
2021/04/30 03:44:00;;;;;;;20.83;18.70;;;7.30;99.90;;;;;;5093535;28;20876;-66
2021/04/30 03:46:25;;;;;;;20.20;18.20;;;7.30;99.90;;;;;;5089652;28;20413;-66
2021/04/30 03:48:52;;;;;;;22.10;20.03;;;7.30;99.90;;;;;;5073240;28;20154;-66
2021/04/30 03:51:18;;;;;;;19.30;17.57;;;7.30;99.90;;;;;;5073350;28;20170;-66
2021/04/30 03:53:43;;;;;;;19.63;18.00;;;7.20;99.90;;;;;;5073447;28;20430;-66
2021/04/30 03:56:09;;;;;;;21.50;19.57;;;7.20;99.90;;;;;;5072948;28;20480;-66
2021/04/30 03:58:35;;;;;;;20.53;18.60;;;7.20;99.90;;;;;;5073201;28;20205;-66
2021/04/30 04:01:00;;;;;;;23.60;18.80;;;7.20;99.90;;;;;;5073658;28;20182;-66
2021/04/30 04:03:26;;;;;;;22.50;20.40;;;7.20;99.90;;;;;;5076985;28;20519;-66
2021/04/30 04:05:51;;;;;;;22.73;20.33;;;7.20;99.90;;;;;;5092943;28;20223;-66
2021/04/30 04:08:17;;;;;;;24.50;21.87;;;7.20;99.90;;;;;;5093569;28;20169;-66
2021/04/30 04:10:43;;;;;;;22.40;20.13;;;7.20;99.90;;;;;;5093166;28;20168;-66
2021/04/30 04:13:25;;;;;;;23.90;20.97;;;7.20;99.90;;;;;;5093525;28;20174;-66
2021/04/30 04:15:54;;;;;;;25.43;22.27;;;7.20;99.90;;;;;;5093889;28;20205;-66
2021/04/30 04:18:24;;;;;;;24.53;21.80;;;7.30;99.90;;;;;;5073417;28;20416;-66
2021/04/30 04:20:49;;;;;;;24.23;21.80;;;7.30;99.90;;;;;;5073355;28;20406;-66
2021/04/30 04:23:15;;;;;;;23.27;21.00;;;7.30;99.90;;;;;;5072902;28;20397;-66
2021/04/30 04:25:41;;;;;;;27.23;24.20;;;7.30;99.90;;;;;;5072890;28;20549;-66
2021/04/30 04:28:07;;;;;;;27.80;22.90;;;7.30;99.90;;;;;;5073530;28;20168;-66
2021/04/30 04:30:36;;;;;;;31.67;23.43;;;7.30;99.90;;;;;;5073633;28;20741;-66
2021/04/30 04:33:02;;;;;;;26.97;23.80;;;7.30;99.90;;;;;;5072689;28;20903;-66
2021/04/30 04:35:28;;;;;;;32.20;24.03;;;7.30;99.90;;;;;;5072561;28;20460;-66
2021/04/30 04:37:54;;;;;;;27.67;24.40;;;7.30;99.90;;;;;;5080499;28;20506;-66
2021/04/30 04:40:20;;;;;;;26.30;23.70;;;7.30;99.90;;;;;;5092186;28;20167;-66
2021/04/30 04:42:46;;;;;;;26.07;23.47;;;7.30;99.90;;;;;;5093600;28;20174;-66
2021/04/30 04:45:14;;;;;;;27.80;24.90;;;7.30;99.90;;;;;;5093542;28;20431;-66
2021/04/30 04:47:40;;;;;;;30.43;25.77;;;7.30;99.90;;;;;;5092800;28;20440;-66
2021/04/30 04:50:07;;;;;;;30.77;27.57;;;7.20;99.90;;;;;;5092846;28;20748;-66
2021/04/30 04:52:33;;;;;;;29.47;26.40;;;7.20;99.90;;;;;;5092793;28;20404;-66
2021/04/30 04:54:59;;;;;;;27.60;24.67;;;7.10;99.90;;;;;;5083828;28;21252;-66
2021/04/30 04:57:24;;;;;;;31.27;25.23;;;7.20;99.90;;;;;;5074956;28;20424;-66
2021/04/30 04:59:50;;;;;;;32.17;28.80;;;7.20;99.90;;;;;;5076625;28;20543;-66
2021/04/30 05:02:16;;;;;;;29.33;26.33;;;7.20;99.90;;;;;;5076315;28;20163;-66
2021/04/30 05:04:41;;;;;;;31.07;25.97;;;7.20;99.90;;;;;;5076479;28;20165;-66
2021/04/30 05:07:07;;;;;;;27.80;25.10;;;7.10;99.90;;;;;;5087301;28;20179;-66
2021/04/30 05:09:32;;;;;;;30.90;27.60;;;7.10;99.90;;;;;;5096566;28;20168;-66
2021/04/30 05:11:58;;;;;;;32.40;28.27;;;7.10;99.90;;;;;;5089346;28;20204;-66
2021/04/30 05:14:25;;;;;;;33.50;28.10;;;7.00;99.90;;;;;;5076350;28;20220;-66
2021/04/30 05:16:50;;;;;;;32.33;28.13;;;7.00;99.90;;;;;;5076159;28;20157;-66
2021/04/30 05:19:16;;;;;;;36.03;29.80;;;6.90;99.90;;;;;;5076188;28;20944;-66
2021/04/30 05:21:44;;;;;;;31.97;28.77;;;6.90;99.90;;;;;;5075994;28;20498;-66
2021/04/30 05:24:12;;;;;;;30.50;27.50;;;7.00;99.90;;;;;;5075972;28;20154;-66
2021/04/30 05:26:38;;;;;;;32.77;29.57;;;6.90;99.90;;;;;;5076798;28;20405;-66
2021/04/30 05:29:04;;;;;;;32.10;29.00;;;7.00;99.90;;;;;;5076686;28;20408;-66
2021/04/30 05:31:30;;;;;;;28.87;26.07;;;7.00;99.90;;;;;;5081599;28;20681;-66
2021/04/30 05:33:55;;;;;;;29.97;26.93;;;7.00;99.90;;;;;;5085074;28;20469;-66
2021/04/30 05:36:21;;;;;;;29.40;26.43;;;7.10;99.90;;;;;;5088971;28;20198;-66
2021/04/30 05:38:46;;;;;;;30.63;26.93;;;7.10;99.90;;;;;;5078814;28;20180;-66
2021/04/30 05:41:12;;;;;;;28.10;25.43;;;7.10;99.90;;;;;;5089346;28;20666;-66
2021/04/30 05:43:38;;;;;;;27.77;24.97;;;7.20;99.90;;;;;;5080876;28;20528;-66
2021/04/30 05:46:03;;;;;;;28.07;25.37;;;7.20;99.90;;;;;;5088581;28;20184;-66
2021/04/30 05:48:29;;;;;;;28.20;25.27;;;7.20;99.90;;;;;;5075536;28;20237;-66
2021/04/30 05:50:54;;;;;;;27.77;24.70;;;7.30;99.90;;;;;;5075429;28;20189;-66
2021/04/30 05:53:21;;;;;;;32.07;25.70;;;7.30;99.90;;;;;;5090250;28;20163;-66
2021/04/30 05:55:47;;;;;;;28.27;24.60;;;7.30;99.90;;;;;;5083316;28;20198;-66
2021/04/30 05:58:13;;;;;;;29.63;26.63;;;7.30;99.90;;;;;;5083549;28;20436;-66
2021/04/30 06:00:38;;;;;;;26.03;23.53;;;7.40;99.90;;;;;;5085760;28;20203;-66
2021/04/30 06:03:04;;;;;;;28.73;24.33;;;7.40;99.90;;;;;;5086008;28;20229;-66
2021/04/30 06:05:30;;;;;;;30.57;25.90;;;7.40;99.90;;;;;;5084892;28;20188;-66
2021/04/30 06:07:55;;;;;;;30.60;27.50;;;7.40;99.90;;;;;;5075828;28;20183;-66
2021/04/30 06:10:21;;;;;;;31.17;28.00;;;7.50;99.90;;;;;;5080027;28;20185;-66
2021/04/30 06:12:46;;;;;;;36.50;30.67;;;7.50;99.90;;;;;;5078214;28;20181;-66
2021/04/30 06:15:12;;;;;;;35.10;31.40;;;7.50;99.90;;;;;;5095127;28;20202;-66
2021/04/30 06:17:38;;;;;;;40.47;31.60;;;7.50;99.90;;;;;;5095034;28;20163;-66
2021/04/30 06:20:04;;;;;;;37.53;33.53;;;7.50;99.90;;;;;;5094233;28;20611;-66
2021/04/30 06:22:30;;;;;;;36.20;32.30;;;7.50;99.90;;;;;;5095081;28;20164;-66
2021/04/30 06:24:56;;;;;;;36.10;32.27;;;7.40;99.90;;;;;;5089122;28;20417;-66
2021/04/30 06:27:21;;;;;;;37.10;33.17;;;7.40;99.90;;;;;;5083334;28;20198;-66
2021/04/30 06:29:47;;;;;;;37.53;32.50;;;7.40;99.90;;;;;;5086614;28;20196;-66
2021/04/30 06:32:12;;;;;;;37.30;33.50;;;7.40;99.90;;;;;;5074651;28;20157;-66
2021/04/30 06:34:38;;;;;;;37.57;33.67;;;7.40;99.90;;;;;;5085555;28;20680;-66
2021/04/30 06:37:04;;;;;;;43.97;35.70;;;7.40;99.90;;;;;;5094040;28;20708;-66
2021/04/30 06:39:30;;;;;;;40.73;35.17;;;7.50;99.90;;;;;;5093857;28;20204;-66
2021/04/30 06:41:56;;;;;;;41.17;36.07;;;7.50;99.90;;;;;;5074693;28;20209;-66
2021/04/30 06:44:22;;;;;;;44.43;37.97;;;7.40;99.90;;;;;;5081192;28;20425;-66
2021/04/30 06:46:48;;;;;;;42.90;38.60;;;7.40;99.90;;;;;;5094562;28;20386;-66
2021/04/30 06:49:14;;;;;;;44.17;39.47;;;7.40;99.90;;;;;;5091095;28;20446;-66
2021/04/30 06:51:39;;;;;;;43.43;38.83;;;7.40;99.90;;;;;;5074177;28;20178;-66
2021/04/30 06:54:05;;;;;;;45.97;40.00;;;7.30;99.90;;;;;;5076147;28;20175;-66
2021/04/30 06:56:31;;;;;;;43.43;38.87;;;7.30;99.90;;;;;;5090054;28;20702;-66
2021/04/30 06:58:57;;;;;;;48.20;40.80;;;7.30;99.90;;;;;;5094277;28;20191;-66
2021/04/30 07:01:23;;;;;;;44.60;39.10;;;7.30;99.90;;;;;;5090615;28;20744;-66
2021/04/30 07:03:50;;;;;;;41.93;37.40;;;7.30;99.90;;;;;;5094142;28;20397;-66
2021/04/30 07:06:18;;;;;;;48.53;39.67;;;7.30;99.90;;;;;;5077971;28;20214;-66
2021/04/30 07:08:43;;;;;;;42.07;37.33;;;7.40;99.90;;;;;;5075420;28;20394;-66
2021/04/30 07:11:09;;;;;;;42.20;36.57;;;7.40;99.90;;;;;;5084361;28;20931;-66
2021/04/30 07:13:35;;;;;;;41.80;36.00;;;7.40;99.90;;;;;;5094018;28;20159;-66
2021/04/30 07:16:02;;;;;;;43.00;36.93;;;7.50;99.90;;;;;;5093742;28;21013;-66
2021/04/30 07:18:28;;;;;;;43.63;38.13;;;7.50;99.90;;;;;;5094074;28;20445;-66
2021/04/30 07:20:53;;;;;;;44.70;36.77;;;7.60;99.90;;;;;;5093254;28;20381;-66
2021/04/30 07:23:19;;;;;;;53.63;42.73;;;7.60;99.90;;;;;;5083573;28;20183;-66
2021/04/30 07:25:45;;;;;;;43.07;38.40;;;7.60;99.90;;;;;;5073709;28;20224;-66
2021/04/30 07:28:10;;;;;;;44.27;38.10;;;7.50;99.90;;;;;;5083650;28;20671;-66
2021/04/30 07:30:36;;;;;;;46.10;40.10;;;7.50;99.90;;;;;;5093802;28;20177;-66
2021/04/30 07:33:02;;;;;;;42.60;38.07;;;7.50;99.90;;;;;;5089091;28;20185;-66
2021/04/30 07:35:27;;;;;;;50.90;39.37;;;7.50;99.90;;;;;;5080341;28;20731;-66
2021/04/30 07:37:53;;;;;;;46.03;38.50;;;7.60;99.90;;;;;;5087356;28;20175;-66
2021/04/30 07:40:18;;;;;;;49.07;38.37;;;7.60;99.90;;;;;;5093664;28;20181;-66
2021/04/30 07:42:44;;;;;;;50.10;39.87;;;7.60;99.90;;;;;;5093668;28;20171;-66
2021/04/30 07:45:10;;;;;;;51.40;39.83;;;7.60;99.90;;;;;;5086212;28;20179;-66
2021/04/30 07:47:36;;;;;;;46.50;39.80;;;7.70;99.90;;;;;;5084428;28;20243;-66
2021/04/30 07:50:03;;;;;;;51.50;38.97;;;7.80;99.90;;;;;;5081844;28;20417;-66
2021/04/30 07:52:28;;;;;;;48.40;40.17;;;7.80;99.90;;;;;;5078760;28;20262;-66
2021/04/30 07:54:54;;;;;;;52.67;42.40;;;7.80;99.90;;;;;;5090498;28;20548;-66
2021/04/30 07:57:20;;;;;;;47.90;38.53;;;7.90;99.90;;;;;;5080299;28;20308;-66
2021/04/30 07:59:46;;;;;;;52.77;41.00;;;7.90;99.90;;;;;;5081058;28;20229;-66
2021/04/30 08:02:11;;;;;;;54.23;42.50;;;7.90;99.90;;;;;;5076942;28;20507;-66
2021/04/30 08:04:37;;;;;;;52.10;42.00;;;7.90;99.90;;;;;;5085336;28;20185;-66
2021/04/30 08:07:02;;;;;;;50.67;40.90;;;7.90;99.90;;;;;;5076893;28;20628;-66
2021/04/30 08:09:28;;;;;;;55.30;41.07;;;8.00;99.90;;;;;;5076846;28;20215;-66
2021/04/30 08:11:53;;;;;;;50.13;41.17;;;8.00;99.90;;;;;;5077702;28;20197;-66
2021/04/30 08:14:19;;;;;;;49.93;39.67;;;8.10;99.90;;;;;;5085223;28;20182;-66
2021/04/30 08:16:45;;;;;;;47.57;38.83;;;8.20;99.90;;;;;;5077624;28;20186;-66
2021/04/30 08:19:10;;;;;;;49.07;40.97;;;8.20;99.90;;;;;;5082867;28;20186;-66
2021/04/30 08:21:36;;;;;;;51.60;39.73;;;8.30;99.90;;;;;;5081649;28;20216;-66
2021/04/30 08:24:03;;;;;;;49.77;40.20;;;8.40;99.90;;;;;;5077966;28;20178;-66
2021/04/30 08:26:29;;;;;;;48.83;38.40;;;8.40;99.90;;;;;;5080655;28;20187;-66
2021/04/30 08:28:55;;;;;;;56.53;41.07;;;8.40;99.90;;;;;;5074944;28;20596;-66
2021/04/30 08:31:22;;;;;;;50.80;38.87;;;8.40;99.90;;;;;;5087854;28;20892;-66
2021/04/30 08:33:49;;;;;;;50.37;40.50;;;8.40;99.90;;;;;;5093173;28;20189;-66
2021/04/30 08:36:15;;;;;;;56.87;39.97;;;8.40;99.90;;;;;;5085169;28;20464;-66
2021/04/30 08:38:41;;;;;;;50.60;39.77;;;8.50;99.90;;;;;;5097175;28;20413;-66
2021/04/30 08:41:07;;;;;;;53.40;40.53;;;8.50;99.90;;;;;;5097072;28;20155;-66
2021/04/30 08:43:34;;;;;;;49.90;39.87;;;8.50;99.90;;;;;;5095255;28;20428;-66
2021/04/30 08:46:00;;;;;;;50.47;37.97;;;8.50;99.90;;;;;;5094409;28;20181;-66
2021/04/30 08:48:26;;;;;;;49.60;39.73;;;8.50;99.90;;;;;;5083862;28;20424;-66
2021/04/30 08:50:54;;;;;;;52.87;40.03;;;8.50;99.90;;;;;;5097262;28;20487;-66
2021/04/30 08:53:20;;;;;;;48.77;39.33;;;8.50;99.90;;;;;;5086292;28;20182;-66
2021/04/30 08:55:50;;;;;;;50.60;40.40;;;8.40;99.90;;;;;;5090193;28;20467;-66
2021/04/30 08:58:22;;;;;;;51.10;42.90;;;8.40;99.90;;;;;;5086157;28;20408;-66
2021/04/30 09:00:48;;;;;;;52.03;40.40;;;8.40;99.90;;;;;;5084300;28;20768;-66
2021/04/30 09:03:15;;;;;;;53.90;42.00;;;8.40;99.90;;;;;;5089280;28;20417;-66
2021/04/30 09:05:47;;;;;;;52.43;42.63;;;8.40;99.90;;;;;;5089868;28;20461;-66
2021/04/30 09:08:13;;;;;;;54.03;41.27;;;8.40;99.90;;;;;;5085558;28;20416;-66
2021/04/30 09:10:42;;;;;;;51.63;40.60;;;8.40;99.90;;;;;;5086859;28;20489;-66
2021/04/30 09:13:11;;;;;;;45.63;37.90;;;8.40;99.90;;;;;;5092580;28;20289;-66
2021/04/30 09:15:39;;;;;;;46.23;35.90;;;8.50;99.90;;;;;;5078497;28;20595;-66
2021/04/30 09:18:26;;;;;;;48.83;39.13;;;8.50;99.90;;;;;;5076813;28;20425;-66
2021/04/30 09:20:54;;;;;;;46.00;37.67;;;8.60;99.90;;;;;;5095175;28;20432;-66
2021/04/30 09:29:01;;;;;;;42.17;36.50;;;8.60;99.90;;;;;;5111722;27;20509;-67
2021/04/30 09:31:44;;;;;;;46.20;38.30;;;8.50;99.90;;;;;;5112114;28;20864;-67
2021/04/30 09:45:05;;;;;;;48.47;39.10;;;8.40;99.90;;;;;;5007423;27;20525;-67
2021/04/30 09:47:33;;;;;;;51.07;39.10;;;8.40;99.90;;;;;;5007263;28;20467;-67
2021/04/30 09:50:02;;;;;;;44.23;37.37;;;8.40;99.90;;;;;;5006568;28;20847;-67
2021/04/30 09:52:29;;;;;;;45.63;37.70;;;8.50;99.90;;;;;;5006467;28;20770;-67
2021/04/30 09:55:06;;;;;;;46.30;38.03;;;8.60;99.90;;;;;;5007044;28;20908;-67
2021/04/30 09:57:33;;;;;;;42.17;33.63;;;8.70;99.90;;;;;;5007031;28;20407;-67
2021/04/30 10:00:11;;;;;;;42.47;33.80;;;8.80;99.90;;;;;;5006789;28;20435;-67
2021/04/30 10:02:37;;;;;;;45.87;35.97;;;8.80;99.90;;;;;;4989261;28;20421;-67
2021/04/30 10:07:48;;;;;;;45.10;36.57;;;8.90;99.90;;;;;;5110890;27;20502;-67
2021/04/30 10:10:17;;;;;;;43.30;36.57;;;9.00;99.90;;;;;;5110858;28;20440;-67
2021/04/30 10:15:20;;;;;;;44.77;36.17;;;9.10;99.90;;;;;;5111394;27;20505;-67
2021/04/30 10:17:47;;;;;;;44.47;36.40;;;9.40;99.90;;;;;;5102464;28;20404;-67
2021/04/30 10:20:15;;;;;;;39.60;34.30;;;9.40;99.90;;;;;;5088499;28;20823;-67
2021/04/30 10:22:43;;;;;;;40.33;35.70;;;9.40;99.90;;;;;;5088318;28;20884;-67
2021/04/30 10:25:10;;;;;;;40.90;36.50;;;9.40;99.90;;;;;;5088598;28;20398;-67
2021/04/30 10:27:39;;;;;;;40.57;35.90;;;9.40;99.90;;;;;;5088269;28;20450;-67
2021/04/30 10:38:18;;;;;;;40.40;31.70;;;9.30;99.90;;;;;;5131532;27;20508;-67
2021/04/30 10:41:04;;;;;;;37.90;33.40;;;9.20;99.90;;;;;;5131699;28;20506;-67
2021/04/30 10:43:32;;;;;;;36.70;32.67;;;9.20;99.90;;;;;;5130499;28;20936;-67
2021/04/30 10:51:42;;;;;;;30.77;27.57;;;9.30;99.90;;;;;;5026115;27;20519;-66
2021/04/30 11:07:49;;;;;;;34.47;30.73;;;9.30;99.90;;;;;;5131484;27;20557;-67
2021/04/30 11:18:24;;;;;;;38.07;29.27;;;9.80;99.90;;;;;;5131538;27;20504;-67
2021/04/30 11:21:09;;;;;;;34.13;29.70;;;10.10;99.90;;;;;;5131380;27;20379;-67
2021/04/30 11:26:14;;;;;;;33.90;27.80;;;10.30;99.90;;;;;;5120216;27;20575;-67
2021/04/30 11:31:33;;;;;;;38.40;30.03;;;10.20;99.90;;;;;;5131716;27;20867;-67
2021/04/30 11:34:16;;;;;;;37.37;27.57;;;10.40;99.90;;;;;;5131246;28;20387;-67
2021/04/30 11:36:44;;;;;;;36.10;28.10;;;10.50;99.90;;;;;;5131506;28;20394;-67
2021/04/30 11:42:00;;;;;;;38.43;28.93;;;10.60;99.90;;;;;;5131363;27;21294;-67
2021/04/30 11:44:27;;;;;;;32.07;26.40;;;10.70;99.90;;;;;;5111794;28;20381;-67
2021/04/30 11:47:01;;;;;;;33.67;26.07;;;10.70;99.90;;;;;;5110822;28;20384;-67
2021/04/30 11:49:28;;;;;;;36.27;28.67;;;10.80;99.90;;;;;;5110933;28;20488;-67
2021/04/30 11:51:53;;;;;;;33.70;28.30;;;11.00;99.90;;;;;;5110873;28;20388;-67
2021/04/30 11:54:26;;;;;;;34.90;28.17;;;11.10;99.90;;;;;;5092713;28;20412;-67
2021/04/30 11:57:09;;;;;;;32.87;28.33;;;11.10;99.90;;;;;;5105430;28;20246;-67
2021/04/30 11:59:37;;;;;;;35.70;30.40;;;11.20;99.90;;;;;;5096581;28;20428;-67
2021/04/30 12:04:44;;;;;;;38.33;28.23;;;11.40;99.90;;;;;;5129956;27;20585;-66
2021/04/30 12:07:15;;;;;;;35.03;28.70;;;11.40;99.90;;;;;;5131444;27;20732;-67
2021/04/30 12:09:42;;;;;;;42.27;29.30;;;11.40;99.90;;;;;;5131342;27;20387;-67
2021/04/30 12:17:40;;;;;;;31.07;26.23;;;11.50;99.90;;;;;;5096654;27;20875;-67
2021/04/30 12:23:06;;;;;;;28.77;25.40;;;11.60;99.90;;;;;;5110794;27;20506;-67
2021/04/30 12:28:25;;;;;;;34.63;25.13;;;11.70;99.90;;;;;;5111474;27;21025;-67
2021/04/30 12:30:57;;;;;;;29.30;25.37;;;11.70;99.90;;;;;;5110990;28;20387;-67
2021/04/30 12:33:25;;;;;;;31.57;26.00;;;11.70;99.90;;;;;;5107087;28;20897;-67
2021/04/30 12:35:54;;;;;;;25.77;22.83;;;11.80;99.90;;;;;;5090466;28;20404;-66
2021/04/30 12:38:20;;;;;;;28.63;23.90;;;11.80;99.90;;;;;;5090505;28;20447;-67
2021/04/30 12:40:46;;;;;;;31.27;23.07;;;12.10;99.90;;;;;;5091168;28;20722;-67
2021/04/30 12:43:12;;;;;;;26.90;23.60;;;12.20;99.90;;;;;;5090945;28;20416;-67
2021/04/30 12:45:41;;;;;;;30.10;24.00;;;12.40;99.90;;;;;;5090347;28;20745;-67
2021/04/30 12:48:07;;;;;;;29.20;22.83;;;12.50;99.90;;;;;;5094086;28;20235;-67
2021/04/30 12:50:33;;;;;;;24.93;21.77;;;12.60;99.90;;;;;;5105185;28;20409;-67
2021/04/30 12:52:59;;;;;;;27.80;22.77;;;12.60;99.90;;;;;;5090042;28;20490;-67
2021/04/30 12:55:28;;;;;;;28.10;22.20;;;12.60;99.90;;;;;;5090645;28;20672;-67
2021/04/30 13:01:03;;;;;;;28.83;23.40;;;12.50;99.90;;;;;;5111092;27;20917;-66
2021/04/30 13:03:34;;;;;;;27.17;21.50;;;12.60;99.90;;;;;;5110301;28;20912;-66
2021/04/30 13:06:00;;;;;;;22.27;19.70;;;12.70;99.90;;;;;;5109355;28;20449;-66
2021/04/30 13:08:26;;;;;;;22.80;20.40;;;12.90;99.90;;;;;;5102797;28;20491;-66
2021/04/30 13:21:55;;;;;;;21.27;19.10;;;13.20;99.90;;;;;;5131451;27;20514;-66
2021/04/30 13:24:24;;;;;;;23.13;19.97;;;13.30;99.90;;;;;;5128676;27;20408;-66
2021/04/30 13:29:47;;;;;;;22.03;19.40;;;13.30;99.90;;;;;;5131545;27;20497;-66
2021/04/30 13:37:41;;;;;;;23.17;19.50;;;13.50;99.90;;;;;;5090593;28;20565;-67
2021/04/30 13:42:46;;;;;;;20.00;17.30;;;13.50;99.90;;;;;;5096080;27;20514;-67
2021/04/30 13:45:27;;;;;;;21.33;18.43;;;13.50;99.90;;;;;;5090432;28;20420;-67
2021/04/30 13:47:54;;;;;;;21.13;18.33;;;13.50;99.60;;;;;;5090512;28;20484;-67
2021/04/30 13:52:59;;;;;;;18.87;16.63;;;13.40;98.80;;;;;;5111195;27;20506;-66
2021/04/30 13:55:24;;;;;;;22.00;16.63;;;13.40;99.10;;;;;;5111500;28;20409;-66
2021/04/30 13:57:50;;;;;;;21.17;17.20;;;13.50;99.10;;;;;;5110935;28;20791;-66
2021/04/30 14:00:18;;;;;;;18.93;16.57;;;13.50;98.60;;;;;;5109842;28;20424;-66
2021/04/30 14:02:45;;;;;;;19.13;17.20;;;13.50;98.60;;;;;;5099107;28;20183;-66
2021/04/30 14:05:12;;;;;;;22.23;17.00;;;13.50;98.30;;;;;;5090357;28;20896;-66
2021/04/30 14:07:41;;;;;;;21.90;17.67;;;13.60;98.60;;;;;;5090830;28;20385;-66
2021/04/30 14:10:08;;;;;;;20.53;17.50;;;13.60;98.00;;;;;;5090754;28;20912;-66
2021/04/30 14:12:33;;;;;;;19.93;17.83;;;13.50;97.90;;;;;;5090227;28;20464;-66
2021/04/30 14:14:59;;;;;;;19.60;17.37;;;13.50;97.90;;;;;;5090290;28;20393;-66
2021/04/30 14:17:25;;;;;;;23.13;18.83;;;13.30;97.90;;;;;;5090021;28;20381;-66
2021/04/30 14:19:50;;;;;;;19.83;17.80;;;13.00;98.60;;;;;;5089968;28;20179;-66
2021/04/30 14:22:16;;;;;;;22.70;20.17;;;12.90;99.40;;;;;;5090612;28;20643;-66